sensor_id;sensor_type;location;lat;lon;timestamp;pressure;altitude;pressure_sealevel;temperature;humidity
44992;BME280;56865;51.618;7.406;2023-02-13T00:01:18;102948.47;;;16.66;100.00
44992;BME280;56865;51.618;7.406;2023-02-13T00:03:52;102954.75;;;16.51;100.00
44992;BME280;56865;51.618;7.406;2023-02-13T00:06:24;102941.78;;;16.48;100.00
44992;BME280;56865;51.618;7.406;2023-02-13T00:09:03;102953.44;;;16.40;100.00
44992;BME280;56865;51.618;7.406;2023-02-13T00:11:37;102945.47;;;16.34;100.00
44992;BME280;56865;51.618;7.406;2023-02-13T00:14:08;102944.81;;;16.38;100.00
44992;BME280;56865;51.618;7.406;2023-02-13T00:16:39;102942.34;;;16.41;100.00
44992;BME280;56865;51.618;7.406;2023-02-13T00:19:13;102939.91;;;16.44;100.00
44992;BME280;56865;51.618;7.406;2023-02-13T00:21:43;102937.34;;;16.44;100.00
44992;BME280;56865;51.618;7.406;2023-02-13T00:24:17;102939.91;;;16.44;100.00
44992;BME280;56865;51.618;7.406;2023-02-13T00:26:48;102932.28;;;16.47;100.00
44992;BME280;56865;51.618;7.406;2023-02-13T00:29:17;102935.56;;;16.43;100.00
44992;BME280;56865;51.618;7.406;2023-02-13T00:31:48;102938.47;;;16.30;100.00
44992;BME280;56865;51.618;7.406;2023-02-13T00:34:21;102936.44;;;16.44;100.00
44992;BME280;56865;51.618;7.406;2023-02-13T00:36:52;102935.69;;;16.46;100.00
44992;BME280;56865;51.618;7.406;2023-02-13T00:39:23;102932.94;;;16.41;100.00
44992;BME280;56865;51.618;7.406;2023-02-13T00:41:52;102927.16;;;16.26;100.00
44992;BME280;56865;51.618;7.406;2023-02-13T00:44:24;102931.69;;;16.32;100.00
44992;BME280;56865;51.618;7.406;2023-02-13T00:46:58;102931.50;;;16.27;100.00
44992;BME280;56865;51.618;7.406;2023-02-13T00:49:30;102937.59;;;16.29;100.00
44992;BME280;56865;51.618;7.406;2023-02-13T00:52:00;102932.63;;;16.34;100.00
44992;BME280;56865;51.618;7.406;2023-02-13T00:54:30;102930.94;;;16.34;100.00
44992;BME280;56865;51.618;7.406;2023-02-13T00:56:59;102937.97;;;16.38;100.00
44992;BME280;56865;51.618;7.406;2023-02-13T00:59:29;102932.09;;;16.42;100.00
44992;BME280;56865;51.618;7.406;2023-02-13T01:01:58;102930.03;;;16.34;100.00
44992;BME280;56865;51.618;7.406;2023-02-13T01:04:31;102939.53;;;16.35;100.00
44992;BME280;56865;51.618;7.406;2023-02-13T01:07:01;102933.50;;;16.34;100.00
44992;BME280;56865;51.618;7.406;2023-02-13T01:09:33;102930.19;;;16.37;100.00
44992;BME280;56865;51.618;7.406;2023-02-13T01:12:02;102926.41;;;16.29;100.00
44992;BME280;56865;51.618;7.406;2023-02-13T01:14:33;102937.97;;;16.17;100.00
44992;BME280;56865;51.618;7.406;2023-02-13T01:17:03;102927.91;;;16.23;100.00
44992;BME280;56865;51.618;7.406;2023-02-13T01:19:35;102929.81;;;16.28;100.00
44992;BME280;56865;51.618;7.406;2023-02-13T01:22:05;102935.94;;;16.31;100.00
44992;BME280;56865;51.618;7.406;2023-02-13T01:24:36;102928.72;;;16.22;100.00
44992;BME280;56865;51.618;7.406;2023-02-13T01:27:05;102930.44;;;16.22;100.00
44992;BME280;56865;51.618;7.406;2023-02-13T01:29:35;102929.63;;;16.23;100.00
44992;BME280;56865;51.618;7.406;2023-02-13T01:32:06;102933.22;;;16.27;100.00
44992;BME280;56865;51.618;7.406;2023-02-13T01:34:38;102926.28;;;16.25;100.00
44992;BME280;56865;51.618;7.406;2023-02-13T01:37:10;102927.31;;;16.29;100.00
44992;BME280;56865;51.618;7.406;2023-02-13T01:39:44;102921.44;;;16.12;100.00
44992;BME280;56865;51.618;7.406;2023-02-13T01:42:16;102919.34;;;16.23;100.00
44992;BME280;56865;51.618;7.406;2023-02-13T01:44:54;102922.81;;;16.25;100.00
44992;BME280;56865;51.618;7.406;2023-02-13T01:47:26;102919.69;;;16.32;100.00
44992;BME280;56865;51.618;7.406;2023-02-13T01:50:04;102921.25;;;16.29;100.00
44992;BME280;56865;51.618;7.406;2023-02-13T01:52:37;102921.91;;;16.23;100.00
44992;BME280;56865;51.618;7.406;2023-02-13T01:55:09;102920.34;;;16.27;100.00
44992;BME280;56865;51.618;7.406;2023-02-13T01:57:43;102914.53;;;16.32;100.00
44992;BME280;56865;51.618;7.406;2023-02-13T02:00:15;102916.25;;;16.32;100.00
44992;BME280;56865;51.618;7.406;2023-02-13T02:02:48;102911.91;;;16.31;100.00
44992;BME280;56865;51.618;7.406;2023-02-13T02:05:22;102915.44;;;16.33;100.00
44992;BME280;56865;51.618;7.406;2023-02-13T02:07:54;102911.06;;;16.30;100.00
44992;BME280;56865;51.618;7.406;2023-02-13T02:10:25;102902.06;;;16.20;100.00
44992;BME280;56865;51.618;7.406;2023-02-13T02:12:57;102901.91;;;16.38;100.00
44992;BME280;56865;51.618;7.406;2023-02-13T02:15:30;102904.09;;;16.28;100.00
44992;BME280;56865;51.618;7.406;2023-02-13T02:17:59;102904.09;;;16.28;100.00
44992;BME280;56865;51.618;7.406;2023-02-13T02:20:39;102902.31;;;16.27;100.00
44992;BME280;56865;51.618;7.406;2023-02-13T02:23:23;102899.66;;;16.25;100.00
44992;BME280;56865;51.618;7.406;2023-02-13T02:26:06;102892.28;;;16.33;100.00
44992;BME280;56865;51.618;7.406;2023-02-13T02:28:59;102890.63;;;16.35;100.00
44992;BME280;56865;51.618;7.406;2023-02-13T02:34:28;102905.56;;;16.22;100.00
44992;BME280;56865;51.618;7.406;2023-02-13T02:37:11;102895.66;;;16.32;100.00
44992;BME280;56865;51.618;7.406;2023-02-13T02:39:45;102884.41;;;16.30;100.00
44992;BME280;56865;51.618;7.406;2023-02-13T02:42:24;102895.88;;;16.15;100.00
44992;BME280;56865;51.618;7.406;2023-02-13T02:45:01;102888.81;;;16.32;100.00
44992;BME280;56865;51.618;7.406;2023-02-13T02:47:36;102890.63;;;16.35;100.00
44992;BME280;56865;51.618;7.406;2023-02-13T02:50:29;102895.00;;;16.37;100.00
44992;BME280;56865;51.618;7.406;2023-02-13T02:53:05;102884.94;;;16.00;100.00
44992;BME280;56865;51.618;7.406;2023-02-13T02:55:40;102888.50;;;16.24;100.00
44992;BME280;56865;51.618;7.406;2023-02-13T02:58:16;102888.41;;;16.21;100.00
44992;BME280;56865;51.618;7.406;2023-02-13T03:01:03;102887.69;;;16.25;100.00
44992;BME280;56865;51.618;7.406;2023-02-13T03:03:47;102871.44;;;16.27;100.00
44992;BME280;56865;51.618;7.406;2023-02-13T03:06:36;102885.50;;;16.14;100.00
44992;BME280;56865;51.618;7.406;2023-02-13T03:09:10;102887.41;;;16.18;100.00
44992;BME280;56865;51.618;7.406;2023-02-13T03:11:55;102887.50;;;16.21;100.00
44992;BME280;56865;51.618;7.406;2023-02-13T03:14:38;102884.63;;;16.13;100.00
44992;BME280;56865;51.618;7.406;2023-02-13T03:17:09;102884.22;;;16.25;100.00
44992;BME280;56865;51.618;7.406;2023-02-13T03:19:55;102887.22;;;16.36;100.00
44992;BME280;56865;51.618;7.406;2023-02-13T03:22:44;102888.19;;;16.38;100.00
44992;BME280;56865;51.618;7.406;2023-02-13T03:25:20;102882.22;;;16.39;100.00
44992;BME280;56865;51.618;7.406;2023-02-13T03:27:57;102888.03;;;16.35;100.00
44992;BME280;56865;51.618;7.406;2023-02-13T03:30:46;102882.59;;;16.27;100.00
44992;BME280;56865;51.618;7.406;2023-02-13T03:33:27;102895.66;;;16.11;100.00
44992;BME280;56865;51.618;7.406;2023-02-13T03:36:01;102890.38;;;16.29;100.00
44992;BME280;56865;51.618;7.406;2023-02-13T03:38:49;102891.31;;;16.31;100.00
44992;BME280;56865;51.618;7.406;2023-02-13T03:41:24;102898.00;;;16.04;100.00
44992;BME280;56865;51.618;7.406;2023-02-13T03:43:59;102903.84;;;16.00;100.00
44992;BME280;56865;51.618;7.406;2023-02-13T03:46:34;102902.59;;;16.12;100.00
44992;BME280;56865;51.618;7.406;2023-02-13T03:49:06;102900.59;;;16.48;100.00
44992;BME280;56865;51.618;7.406;2023-02-13T03:51:53;102912.97;;;16.36;100.00
44992;BME280;56865;51.618;7.406;2023-02-13T03:54:37;102911.38;;;16.61;100.00
44992;BME280;56865;51.618;7.406;2023-02-13T03:57:26;102913.94;;;16.61;100.00
44992;BME280;56865;51.618;7.406;2023-02-13T04:00:14;102907.38;;;16.69;100.00
44992;BME280;56865;51.618;7.406;2023-02-13T04:02:48;102908.22;;;16.68;100.00
44992;BME280;56865;51.618;7.406;2023-02-13T04:05:22;102903.56;;;16.36;100.00
44992;BME280;56865;51.618;7.406;2023-02-13T04:07:54;102903.53;;;15.92;100.00
44992;BME280;56865;51.618;7.406;2023-02-13T04:10:28;102906.19;;;16.38;100.00
44992;BME280;56865;51.618;7.406;2023-02-13T04:13:06;102899.75;;;15.84;100.00
44992;BME280;56865;51.618;7.406;2023-02-13T04:15:40;102901.19;;;16.20;100.00
44992;BME280;56865;51.618;7.406;2023-02-13T04:18:13;102898.06;;;15.85;100.00
44992;BME280;56865;51.618;7.406;2023-02-13T04:20:45;102901.50;;;15.66;100.00
44992;BME280;56865;51.618;7.406;2023-02-13T04:23:16;102904.53;;;15.76;100.00
44992;BME280;56865;51.618;7.406;2023-02-13T04:25:51;102916.38;;;15.92;100.00
44992;BME280;56865;51.618;7.406;2023-02-13T04:28:22;102906.34;;;15.38;100.00
44992;BME280;56865;51.618;7.406;2023-02-13T04:30:52;102914.19;;;16.02;100.00
44992;BME280;56865;51.618;7.406;2023-02-13T04:33:22;102911.50;;;15.38;100.00
44992;BME280;56865;51.618;7.406;2023-02-13T04:35:53;102902.72;;;15.54;100.00
44992;BME280;56865;51.618;7.406;2023-02-13T04:38:22;102917.50;;;15.58;100.00
44992;BME280;56865;51.618;7.406;2023-02-13T04:40:55;102914.50;;;15.10;100.00
44992;BME280;56865;51.618;7.406;2023-02-13T04:43:25;102908.31;;;15.24;100.00
44992;BME280;56865;51.618;7.406;2023-02-13T04:45:54;102917.44;;;15.78;100.00
44992;BME280;56865;51.618;7.406;2023-02-13T04:48:24;102917.06;;;15.69;100.00
44992;BME280;56865;51.618;7.406;2023-02-13T04:50:56;102914.25;;;15.43;100.00
44992;BME280;56865;51.618;7.406;2023-02-13T04:53:26;102912.94;;;15.72;100.00
44992;BME280;56865;51.618;7.406;2023-02-13T04:55:58;102911.84;;;15.87;100.00
44992;BME280;56865;51.618;7.406;2023-02-13T04:58:28;102917.47;;;16.19;100.00
44992;BME280;56865;51.618;7.406;2023-02-13T05:00:58;102902.84;;;16.18;100.00
44992;BME280;56865;51.618;7.406;2023-02-13T05:03:27;102906.56;;;16.05;100.00
44992;BME280;56865;51.618;7.406;2023-02-13T05:05:57;102905.13;;;15.71;100.00
44992;BME280;56865;51.618;7.406;2023-02-13T05:08:27;102902.63;;;15.51;100.00
44992;BME280;56865;51.618;7.406;2023-02-13T05:11:01;102907.47;;;15.65;100.00
44992;BME280;56865;51.618;7.406;2023-02-13T05:13:31;102902.72;;;15.54;100.00
44992;BME280;56865;51.618;7.406;2023-02-13T05:16:00;102901.28;;;15.40;100.00
44992;BME280;56865;51.618;7.406;2023-02-13T05:18:30;102902.94;;;15.39;100.00
44992;BME280;56865;51.618;7.406;2023-02-13T05:21:00;102898.41;;;15.53;100.00
44992;BME280;56865;51.618;7.406;2023-02-13T05:23:42;102900.44;;;15.60;100.00
44992;BME280;56865;51.618;7.406;2023-02-13T05:26:14;102896.66;;;15.33;100.00
44992;BME280;56865;51.618;7.406;2023-02-13T05:28:45;102892.66;;;15.39;100.00
44992;BME280;56865;51.618;7.406;2023-02-13T05:31:33;102890.72;;;15.74;100.00
44992;BME280;56865;51.618;7.406;2023-02-13T05:34:03;102889.75;;;15.51;100.00
44992;BME280;56865;51.618;7.406;2023-02-13T05:36:34;102889.09;;;15.16;100.00
44992;BME280;56865;51.618;7.406;2023-02-13T05:39:04;102887.72;;;15.64;100.00
44992;BME280;56865;51.618;7.406;2023-02-13T05:41:41;102888.47;;;15.22;100.00
44992;BME280;56865;51.618;7.406;2023-02-13T05:44:10;102887.34;;;15.35;100.00
44992;BME280;56865;51.618;7.406;2023-02-13T05:46:43;102889.72;;;15.71;100.00
44992;BME280;56865;51.618;7.406;2023-02-13T05:49:14;102889.91;;;15.75;100.00
44992;BME280;56865;51.618;7.406;2023-02-13T05:51:44;102893.88;;;15.67;100.00
44992;BME280;56865;51.618;7.406;2023-02-13T05:54:14;102891.31;;;15.48;100.00
44992;BME280;56865;51.618;7.406;2023-02-13T05:56:48;102892.19;;;15.87;100.00
44992;BME280;56865;51.618;7.406;2023-02-13T05:59:18;102901.97;;;15.96;100.00
44992;BME280;56865;51.618;7.406;2023-02-13T06:01:49;102893.09;;;15.89;100.00
44992;BME280;56865;51.618;7.406;2023-02-13T06:04:19;102899.78;;;15.45;100.00
44992;BME280;56865;51.618;7.406;2023-02-13T06:06:48;102897.50;;;14.94;100.00
44992;BME280;56865;51.618;7.406;2023-02-13T06:09:18;102901.28;;;15.40;100.00
44992;BME280;56865;51.618;7.406;2023-02-13T06:11:51;102898.50;;;15.55;100.00
44992;BME280;56865;51.618;7.406;2023-02-13T06:14:21;102899.44;;;15.98;100.00
44992;BME280;56865;51.618;7.406;2023-02-13T06:16:51;102905.09;;;15.89;100.00
44992;BME280;56865;51.618;7.406;2023-02-13T06:19:20;102895.25;;;15.20;100.00
44992;BME280;56865;51.618;7.406;2023-02-13T06:21:50;102902.41;;;15.66;100.00
44992;BME280;56865;51.618;7.406;2023-02-13T06:24:22;102907.78;;;15.92;100.00
44992;BME280;56865;51.618;7.406;2023-02-13T06:26:56;102903.09;;;16.03;100.00
44992;BME280;56865;51.618;7.406;2023-02-13T06:29:26;102907.47;;;15.84;100.00
44992;BME280;56865;51.618;7.406;2023-02-13T06:31:57;102900.81;;;15.89;100.00
44992;BME280;56865;51.618;7.406;2023-02-13T06:34:27;102894.72;;;16.30;100.00
44992;BME280;56865;51.618;7.406;2023-02-13T06:36:57;102906.28;;;16.18;100.00
44992;BME280;56865;51.618;7.406;2023-02-13T06:39:26;102903.91;;;15.61;100.00
44992;BME280;56865;51.618;7.406;2023-02-13T06:42:00;102896.03;;;16.20;100.00
44992;BME280;56865;51.618;7.406;2023-02-13T06:44:31;102903.38;;;16.11;100.00
44992;BME280;56865;51.618;7.406;2023-02-13T06:47:11;102895.16;;;15.38;100.00
44992;BME280;56865;51.618;7.406;2023-02-13T06:49:45;102900.19;;;15.35;100.00
44992;BME280;56865;51.618;7.406;2023-02-13T06:52:17;102900.69;;;15.67;100.00
44992;BME280;56865;51.618;7.406;2023-02-13T06:54:47;102906.25;;;15.56;100.00
44992;BME280;56865;51.618;7.406;2023-02-13T07:00:25;102904.88;;;15.84;100.00
44992;BME280;56865;51.618;7.406;2023-02-13T07:03:04;102912.41;;;15.60;100.00
44992;BME280;56865;51.618;7.406;2023-02-13T07:05:46;102906.81;;;15.49;100.00
44992;BME280;56865;51.618;7.406;2023-02-13T07:08:24;102902.66;;;15.33;100.00
44992;BME280;56865;51.618;7.406;2023-02-13T07:10:57;102900.66;;;15.46;100.00
44992;BME280;56865;51.618;7.406;2023-02-13T07:13:37;102908.31;;;15.24;100.00
44992;BME280;56865;51.618;7.406;2023-02-13T07:16:12;102911.56;;;15.40;100.00
44992;BME280;56865;51.618;7.406;2023-02-13T07:18:59;102914.72;;;15.34;100.00
44992;BME280;56865;51.618;7.406;2023-02-13T07:21:34;102919.53;;;15.07;100.00
44992;BME280;56865;51.618;7.406;2023-02-13T07:24:20;102923.03;;;15.09;100.00
44992;BME280;56865;51.618;7.406;2023-02-13T07:27:31;102921.88;;;15.02;100.00
44992;BME280;56865;51.618;7.406;2023-02-13T07:30:13;102922.16;;;15.08;100.00
44992;BME280;56865;51.618;7.406;2023-02-13T07:32:52;102923.19;;;15.12;100.00
44992;BME280;56865;51.618;7.406;2023-02-13T07:35:47;102923.22;;;15.33;100.00
44992;BME280;56865;51.618;7.406;2023-02-13T07:38:40;102917.75;;;15.25;100.00
44992;BME280;56865;51.618;7.406;2023-02-13T07:41:37;102918.63;;;15.46;100.00
44992;BME280;56865;51.618;7.406;2023-02-13T07:44:20;102919.06;;;15.55;100.00
44992;BME280;56865;51.618;7.406;2023-02-13T07:47:07;102930.47;;;15.62;100.00
44992;BME280;56865;51.618;7.406;2023-02-13T07:49:53;102934.16;;;15.68;100.00
44992;BME280;56865;51.618;7.406;2023-02-13T07:52:35;102928.22;;;15.69;100.00
44992;BME280;56865;51.618;7.406;2023-02-13T07:55:30;102930.03;;;15.72;100.00
44992;BME280;56865;51.618;7.406;2023-02-13T07:58:33;102927.16;;;15.84;100.00
44992;BME280;56865;51.618;7.406;2023-02-13T08:01:29;102929.91;;;15.88;100.00
44992;BME280;56865;51.618;7.406;2023-02-13T08:04:25;102936.59;;;16.04;100.00
44992;BME280;56865;51.618;7.406;2023-02-13T08:07:43;102934.19;;;15.88;100.00
44992;BME280;56865;51.618;7.406;2023-02-13T08:14:14;102942.59;;;16.26;100.00
44992;BME280;56865;51.618;7.406;2023-02-13T08:17:02;102943.75;;;16.33;100.00
44992;BME280;56865;51.618;7.406;2023-02-13T08:19:39;102942.66;;;16.49;100.00
44992;BME280;56865;51.618;7.406;2023-02-13T08:22:30;102945.13;;;16.68;100.00
44992;BME280;56865;51.618;7.406;2023-02-13T08:25:17;102949.28;;;16.65;100.00
44992;BME280;56865;51.618;7.406;2023-02-13T08:27:51;102947.66;;;16.67;100.00
44992;BME280;56865;51.618;7.406;2023-02-13T08:30:29;102940.44;;;17.02;100.00
44992;BME280;56865;51.618;7.406;2023-02-13T08:33:17;102946.97;;;17.16;100.00
44992;BME280;56865;51.618;7.406;2023-02-13T08:36:10;102946.75;;;17.10;100.00
44992;BME280;56865;51.618;7.406;2023-02-13T08:38:42;102946.22;;;17.43;100.00
44992;BME280;56865;51.618;7.406;2023-02-13T08:41:16;102950.81;;;17.52;100.00
44992;BME280;56865;51.618;7.406;2023-02-13T08:43:47;102947.38;;;17.51;100.00
44992;BME280;56865;51.618;7.406;2023-02-13T08:46:18;102949.66;;;17.68;100.00
44992;BME280;56865;51.618;7.406;2023-02-13T08:48:53;102937.75;;;17.71;100.00
44992;BME280;56865;51.618;7.406;2023-02-13T08:51:25;102939.50;;;17.97;100.00
44992;BME280;56865;51.618;7.406;2023-02-13T08:54:01;102942.31;;;18.05;100.00
44992;BME280;56865;51.618;7.406;2023-02-13T08:56:37;102944.81;;;18.01;100.00
44992;BME280;56865;51.618;7.406;2023-02-13T08:59:08;102944.66;;;18.23;100.00
44992;BME280;56865;51.618;7.406;2023-02-13T09:01:45;102939.03;;;18.36;100.00
44992;BME280;56865;51.618;7.406;2023-02-13T09:04:16;102940.78;;;18.37;100.00
44992;BME280;56865;51.618;7.406;2023-02-13T09:06:52;102928.16;;;18.46;100.00
44992;BME280;56865;51.618;7.406;2023-02-13T09:09:29;102932.09;;;18.35;100.00
44992;BME280;56865;51.618;7.406;2023-02-13T09:12:04;102939.81;;;18.33;100.00
44992;BME280;56865;51.618;7.406;2023-02-13T09:14:35;102939.00;;;18.34;100.00
44992;BME280;56865;51.618;7.406;2023-02-13T09:17:10;102937.91;;;18.55;100.00
44992;BME280;56865;51.618;7.406;2023-02-13T09:19:51;102945.13;;;18.65;100.00
44992;BME280;56865;51.618;7.406;2023-02-13T09:22:22;102939.44;;;18.77;100.00
44992;BME280;56865;51.618;7.406;2023-02-13T09:25:04;102941.09;;;18.75;100.00
44992;BME280;56865;51.618;7.406;2023-02-13T09:27:41;102939.41;;;18.76;100.00
44992;BME280;56865;51.618;7.406;2023-02-13T09:30:11;102943.00;;;18.81;100.00
44992;BME280;56865;51.618;7.406;2023-02-13T09:32:51;102941.19;;;19.06;100.00
44992;BME280;56865;51.618;7.406;2023-02-13T09:35:24;102929.13;;;19.06;100.00
44992;BME280;56865;51.618;7.406;2023-02-13T11:14:12;102929.75;;;23.32;100.00
44992;BME280;56865;51.618;7.406;2023-02-13T11:26:05;102921.91;;;23.27;94.66
44992;BME280;56865;51.618;7.406;2023-02-13T11:58:44;102891.47;;;24.25;92.12
44992;BME280;56865;51.618;7.406;2023-02-13T12:01:30;102887.19;;;24.33;95.53
44992;BME280;56865;51.618;7.406;2023-02-13T12:04:02;102894.19;;;24.45;92.54
44992;BME280;56865;51.618;7.406;2023-02-13T12:06:33;102888.03;;;24.33;84.13
44992;BME280;56865;51.618;7.406;2023-02-13T12:09:09;102891.47;;;24.20;91.01
44992;BME280;56865;51.618;7.406;2023-02-13T12:11:41;102892.28;;;24.17;89.50
44992;BME280;56865;51.618;7.406;2023-02-13T12:14:17;102884.38;;;24.00;87.94
44992;BME280;56865;51.618;7.406;2023-02-13T12:16:48;102878.44;;;24.22;91.32
44992;BME280;56865;51.618;7.406;2023-02-13T12:19:21;102867.16;;;24.26;91.66
44992;BME280;56865;51.618;7.406;2023-02-13T12:22:05;102862.78;;;24.20;87.59
44992;BME280;56865;51.618;7.406;2023-02-13T12:24:50;102861.56;;;23.75;88.19
44992;BME280;56865;51.618;7.406;2023-02-13T12:27:27;102849.69;;;24.11;89.30
44992;BME280;56865;51.618;7.406;2023-02-13T12:30:08;102848.81;;;24.07;91.45
44992;BME280;56865;51.618;7.406;2023-02-13T12:32:45;102852.34;;;24.17;87.97
44992;BME280;56865;51.618;7.406;2023-02-13T12:35:32;102851.41;;;24.02;88.25
44992;BME280;56865;51.618;7.406;2023-02-13T12:38:06;102848.84;;;24.10;89.70
44992;BME280;56865;51.618;7.406;2023-02-13T12:40:47;102844.31;;;23.88;89.39
44992;BME280;56865;51.618;7.406;2023-02-13T12:43:33;102842.53;;;23.82;85.66
44992;BME280;56865;51.618;7.406;2023-02-13T12:46:14;102843.34;;;23.72;91.70
44992;BME280;56865;51.618;7.406;2023-02-13T12:48:50;102837.28;;;23.76;88.73
44992;BME280;56865;51.618;7.406;2023-02-13T12:51:24;102841.84;;;24.01;83.40
44992;BME280;56865;51.618;7.406;2023-02-13T12:54:10;102835.53;;;23.72;91.53
44992;BME280;56865;51.618;7.406;2023-02-13T12:56:50;102824.19;;;23.65;92.20
44992;BME280;56865;51.618;7.406;2023-02-13T12:59:27;102828.56;;;23.67;86.49
44992;BME280;56865;51.618;7.406;2023-02-13T13:02:07;102824.22;;;23.69;90.30
44992;BME280;56865;51.618;7.406;2023-02-13T13:04:44;102823.25;;;23.53;90.60
44992;BME280;56865;51.618;7.406;2023-02-13T13:10:10;102812.66;;;23.33;92.01
44992;BME280;56865;51.618;7.406;2023-02-13T13:12:47;102818.06;;;23.58;89.18
44992;BME280;56865;51.618;7.406;2023-02-13T13:15:22;102815.38;;;23.47;91.68
44992;BME280;56865;51.618;7.406;2023-02-13T13:18:01;102816.19;;;23.39;85.88
44992;BME280;56865;51.618;7.406;2023-02-13T13:23:20;102796.59;;;23.89;92.43
44992;BME280;56865;51.618;7.406;2023-02-13T13:26:11;102795.75;;;23.91;93.51
44992;BME280;56865;51.618;7.406;2023-02-13T13:31:58;102799.88;;;23.66;91.97
44992;BME280;56865;51.618;7.406;2023-02-13T13:34:33;102794.63;;;23.55;91.97
44992;BME280;56865;51.618;7.406;2023-02-13T13:37:04;102794.66;;;23.66;94.71
44992;BME280;56865;51.618;7.406;2023-02-13T13:39:39;102791.34;;;23.82;92.15
44992;BME280;56865;51.618;7.406;2023-02-13T13:42:14;102791.25;;;23.72;91.51
44992;BME280;56865;51.618;7.406;2023-02-13T14:34:36;102756.88;;;21.10;96.62
44992;BME280;56865;51.618;7.406;2023-02-13T21:19:18;102739.69;;;12.87;100.00
44992;BME280;56865;51.618;7.406;2023-02-13T21:21:50;102738.72;;;12.68;100.00
44992;BME280;56865;51.618;7.406;2023-02-13T21:24:38;102735.63;;;12.91;100.00
44992;BME280;56865;51.618;7.406;2023-02-13T21:27:15;102746.66;;;12.90;100.00
44992;BME280;56865;51.618;7.406;2023-02-13T21:29:50;102732.88;;;12.71;100.00
44992;BME280;56865;51.618;7.406;2023-02-13T21:32:27;102735.84;;;12.62;100.00
44992;BME280;56865;51.618;7.406;2023-02-13T21:35:03;102725.53;;;12.61;100.00
44992;BME280;56865;51.618;7.406;2023-02-13T21:37:35;102731.53;;;12.61;100.00
44992;BME280;56865;51.618;7.406;2023-02-13T21:40:08;102732.25;;;12.75;100.00
44992;BME280;56865;51.618;7.406;2023-02-13T21:42:41;102731.38;;;12.58;100.00
44992;BME280;56865;51.618;7.406;2023-02-13T21:45:16;102728.31;;;12.49;100.00
44992;BME280;56865;51.618;7.406;2023-02-13T21:47:51;102734.47;;;12.36;100.00
44992;BME280;56865;51.618;7.406;2023-02-13T21:50:34;102731.16;;;12.22;100.00
44992;BME280;56865;51.618;7.406;2023-02-13T21:53:14;102726.22;;;11.94;100.00
44992;BME280;56865;51.618;7.406;2023-02-13T21:55:59;102728.88;;;12.27;100.00
44992;BME280;56865;51.618;7.406;2023-02-13T21:58:34;102729.13;;;12.00;100.00
44992;BME280;56865;51.618;7.406;2023-02-13T22:01:10;102726.81;;;11.90;100.00
44992;BME280;56865;51.618;7.406;2023-02-13T22:03:54;102725.94;;;11.89;100.00
44992;BME280;56865;51.618;7.406;2023-02-13T22:06:36;102721.91;;;11.78;100.00
44992;BME280;56865;51.618;7.406;2023-02-13T22:09:09;102724.91;;;11.70;100.00
44992;BME280;56865;51.618;7.406;2023-02-13T22:11:45;102720.84;;;11.74;100.00
44992;BME280;56865;51.618;7.406;2023-02-13T22:14:23;102720.44;;;11.66;100.00
44992;BME280;56865;51.618;7.406;2023-02-13T22:16:57;102724.75;;;11.67;100.00
44992;BME280;56865;51.618;7.406;2023-02-13T22:19:36;102719.66;;;11.67;100.00
44992;BME280;56865;51.618;7.406;2023-02-13T22:22:15;102729.66;;;11.64;100.00
44992;BME280;56865;51.618;7.406;2023-02-13T22:24:48;102729.84;;;11.67;100.00
44992;BME280;56865;51.618;7.406;2023-02-13T22:27:21;102732.78;;;11.44;100.00
44992;BME280;56865;51.618;7.406;2023-02-13T22:29:55;102731.28;;;11.47;100.00
44992;BME280;56865;51.618;7.406;2023-02-13T22:32:25;102725.56;;;11.51;100.00
44992;BME280;56865;51.618;7.406;2023-02-13T22:34:59;102728.44;;;11.58;100.00
44992;BME280;56865;51.618;7.406;2023-02-13T22:37:32;102724.22;;;11.58;100.00
44992;BME280;56865;51.618;7.406;2023-02-13T22:40:04;102723.00;;;11.51;100.00
44992;BME280;56865;51.618;7.406;2023-02-13T22:42:35;102725.19;;;11.45;100.00
44992;BME280;56865;51.618;7.406;2023-02-13T22:45:05;102723.44;;;11.44;100.00
44992;BME280;56865;51.618;7.406;2023-02-13T22:47:49;102723.69;;;11.49;100.00
44992;BME280;56865;51.618;7.406;2023-02-13T22:50:19;102725.19;;;11.45;100.00
44992;BME280;56865;51.618;7.406;2023-02-13T22:52:54;102720.28;;;11.48;100.00
44992;BME280;56865;51.618;7.406;2023-02-13T22:55:27;102724.75;;;11.52;100.00
44992;BME280;56865;51.618;7.406;2023-02-13T22:57:59;102723.44;;;11.44;100.00
44992;BME280;56865;51.618;7.406;2023-02-13T23:00:32;102722.13;;;11.36;100.00
44992;BME280;56865;51.618;7.406;2023-02-13T23:03:04;102718.25;;;11.43;100.00
44992;BME280;56865;51.618;7.406;2023-02-13T23:05:37;102724.06;;;11.55;100.00
44992;BME280;56865;51.618;7.406;2023-02-13T23:08:10;102730.22;;;11.74;100.00
44992;BME280;56865;51.618;7.406;2023-02-13T23:10:41;102718.75;;;11.67;100.00
44992;BME280;56865;51.618;7.406;2023-02-13T23:13:31;102716.19;;;11.52;100.00
44992;BME280;56865;51.618;7.406;2023-02-13T23:15:59;102714.72;;;11.41;100.00
44992;BME280;56865;51.618;7.406;2023-02-13T23:18:30;102715.97;;;11.32;100.00
44992;BME280;56865;51.618;7.406;2023-02-13T23:21:02;102723.88;;;11.37;100.00
44992;BME280;56865;51.618;7.406;2023-02-13T23:23:37;102715.59;;;11.26;100.00
44992;BME280;56865;51.618;7.406;2023-02-13T23:26:08;102726.19;;;11.32;100.00
44992;BME280;56865;51.618;7.406;2023-02-13T23:28:41;102727.31;;;11.22;100.00
44992;BME280;56865;51.618;7.406;2023-02-13T23:31:11;102716.66;;;11.30;100.00